Pala, California
Current Conditions -  °F | °C
As of 4:55 AM on Wednesday 26 Nov 2014 (Local Time) from KL18 Reporting Station
Clear Clear  
Wind Chill: 59°   Ceiling: Unl
Heat Index: 59°   Visibility: 10mi
Dew Point: 12°   Wind: 0mph
Humidity: 16%   Direction: NA
Pressure: 30.22"   Gusts: NA
Location:  33.37°N, 117.08°W
Report Text: KL18 261255Z AUTO 00000KT 10SM CLR 15/M11 A3022 RMK AO2
Loading
Personal Weather Stations






























Interactive Weather Map New forecast layout! Learn more

10-Day Weather Forecast

Advertisements
Track Severe Weather on mobile